Time;durP1;ratioP1;P1;durP2;ratioP2;P2;SDS_P1;SDS_P2;PMS_P1;PMS_P2;Temp;Humidity;BMP_temperature;BMP_pressure;BME280_temperature;BME280_humidity;BME280_pressure;Samples;Min_cycle;Max_cycle;Signal;HPM_P1;HPM_P2
2023/03/02 00:02:02;;;;;;;;;;;-0.60;99.90;;;;;;4970682;28;20001;-72
2023/03/02 00:04:31;;;;;;;;;;;-0.60;99.90;;;;;;4971298;28;19926;-73
2023/03/02 00:07:00;;;;;;;;;;;-0.60;99.90;;;;;;4971170;28;20381;-73
2023/03/02 00:09:27;;;;;;;;;;;-0.60;99.90;;;;;;4970825;28;19988;-73
2023/03/02 00:11:56;;;;;;;;;;;-0.60;99.90;;;;;;4970629;28;20021;-72
2023/03/02 00:14:22;;;;;;;;;;;-0.60;99.90;;;;;;4970992;28;19932;-73
2023/03/02 00:16:49;;;;;;;;;;;-0.60;99.90;;;;;;4970787;28;19929;-71
2023/03/02 00:19:16;;;;;;;;;;;-0.60;99.90;;;;;;4971679;28;19963;-73
2023/03/02 00:21:43;;;;;;;;;;;-0.50;99.90;;;;;;4970995;28;19961;-72
2023/03/02 00:24:09;;;;;;;;;;;-0.40;99.90;;;;;;4969902;28;19961;-72
2023/03/02 00:26:36;;;;;;;;;;;-0.40;99.90;;;;;;4971406;28;19926;-72
2023/03/02 00:29:04;;;;;;;;;;;-0.40;99.90;;;;;;4971426;28;20369;-72
2023/03/02 00:31:31;;;;;;;;;;;-0.50;99.90;;;;;;4970802;28;19969;-73
2023/03/02 00:33:58;;;;;;;;;;;-0.70;99.90;;;;;;4971304;28;19972;-72
2023/03/02 00:36:25;;;;;;;;;;;-0.80;99.90;;;;;;4971481;28;19932;-73
2023/03/02 00:38:52;;;;;;;;;;;-0.90;99.90;;;;;;4971766;28;19926;-72
2023/03/02 00:41:20;;;;;;;;;;;-0.90;99.90;;;;;;4972210;28;20353;-72
2023/03/02 00:43:47;;;;;;;;;;;-0.90;99.90;;;;;;4970651;28;20388;-73
2023/03/02 00:46:16;;;;;;;;;;;-0.90;99.90;;;;;;4970135;28;20330;-74
2023/03/02 00:48:42;;;;;;;;;;;-1.00;99.90;;;;;;4970222;28;20022;-73
2023/03/02 00:51:09;;;;;;;;;;;-1.00;99.90;;;;;;4971012;28;20353;-73
2023/03/02 00:53:36;;;;;;;;;;;-1.00;99.90;;;;;;4970850;28;19965;-73
2023/03/02 00:56:03;;;;;;;;;;;-1.00;99.90;;;;;;4969174;28;20420;-73
2023/03/02 00:58:30;;;;;;;;;;;-1.10;99.90;;;;;;4970900;28;19926;-73
2023/03/02 01:00:57;;;;;;;;;;;-1.10;99.90;;;;;;4969439;28;19930;-73
2023/03/02 01:03:25;;;;;;;;;;;-1.20;99.90;;;;;;4971112;28;19926;-73
2023/03/02 01:05:55;;;;;;;;;;;-1.30;99.90;;;;;;4971596;28;20405;-72
2023/03/02 01:08:21;;;;;;;;;;;-1.30;99.90;;;;;;4970872;28;19930;-73
2023/03/02 01:10:48;;;;;;;;;;;-1.30;99.90;;;;;;4972078;28;20300;-72
2023/03/02 01:13:15;;;;;;;;;;;-1.20;99.90;;;;;;4972715;28;20034;-72
2023/03/02 01:15:41;;;;;;;;;;;-1.20;99.90;;;;;;4970827;28;20421;-72
2023/03/02 01:18:08;;;;;;;;;;;-1.10;99.90;;;;;;4969376;28;19933;-72
2023/03/02 01:20:36;;;;;;;;;;;-1.10;99.90;;;;;;4970811;28;20025;-73
2023/03/02 01:23:03;;;;;;;;;;;-1.10;99.90;;;;;;4970659;28;20013;-72
2023/03/02 01:25:30;;;;;;;;;;;-1.20;99.90;;;;;;4970453;28;20013;-72
2023/03/02 01:27:57;;;;;;;;;;;-1.20;99.90;;;;;;4968922;28;19965;-72
2023/03/02 01:30:24;;;;;;;;;;;-1.20;99.90;;;;;;4970681;28;19926;-73
2023/03/02 01:32:50;;;;;;;;;;;-1.10;99.90;;;;;;4970030;28;19976;-73
2023/03/02 01:35:17;;;;;;;;;;;-1.10;99.90;;;;;;4970949;28;20583;-73
2023/03/02 01:37:45;;;;;;;;;;;-1.20;99.90;;;;;;4972179;28;19948;-73
2023/03/02 01:40:13;;;;;;;;;;;-1.30;99.90;;;;;;4970552;28;19952;-73
2023/03/02 01:42:45;;;;;;;;;;;-1.50;99.90;;;;;;4969670;28;19932;-74
2023/03/02 01:45:26;;;;;;;;;;;-1.50;99.90;;;;;;4970227;28;19926;-73
2023/03/02 01:47:53;;;;;;;;;;;-1.60;99.90;;;;;;4971794;28;19926;-72
2023/03/02 01:50:21;;;;;;;;;;;-1.70;99.90;;;;;;4970422;28;19933;-73
2023/03/02 01:52:49;;;;;;;;;;;-1.60;99.90;;;;;;4970199;28;20296;-73
2023/03/02 01:55:19;;;;;;;;;;;-1.60;99.90;;;;;;4970536;28;19932;-74
2023/03/02 01:57:47;;;;;;;;;;;-1.60;99.90;;;;;;4968815;28;20404;-73
2023/03/02 02:00:16;;;;;;;;;;;-1.50;99.90;;;;;;4970785;28;19926;-73
2023/03/02 02:02:42;;;;;;;;;;;-1.50;99.90;;;;;;4968988;28;19933;-73
2023/03/02 02:05:10;;;;;;;;;;;-1.50;99.90;;;;;;4970977;28;20027;-73
2023/03/02 02:07:37;;;;;;;;;;;-1.40;99.90;;;;;;4970144;28;19933;-73
2023/03/02 02:10:05;;;;;;;;;;;-1.30;99.90;;;;;;4972514;28;20274;-73
2023/03/02 02:12:32;;;;;;;;;;;-1.40;99.90;;;;;;4973186;28;19930;-74
2023/03/02 02:15:00;;;;;;;;;;;-1.30;99.90;;;;;;4973667;28;20488;-73
2023/03/02 02:17:28;;;;;;;;;;;-1.30;99.90;;;;;;4973153;28;20013;-74
2023/03/02 02:20:04;;;;;;;;;;;-1.20;99.90;;;;;;4972188;28;19926;-73
2023/03/02 02:22:38;;;;;;;;;;;-1.30;99.90;;;;;;4967971;28;20454;-73
2023/03/02 02:25:11;;;;;;;;;;;-1.40;99.90;;;;;;4973163;28;20439;-74
2023/03/02 02:27:39;;;;;;;;;;;-1.40;99.90;;;;;;4973856;28;19926;-73
2023/03/02 02:30:07;;;;;;;;;;;-1.30;99.90;;;;;;4971973;28;20017;-75
2023/03/02 02:32:35;;;;;;;;;;;-1.40;99.90;;;;;;4972925;28;19930;-77
2023/03/02 02:35:03;;;;;;;;;;;-1.40;99.90;;;;;;4973930;28;19933;-74
2023/03/02 02:37:31;;;;;;;;;;;-1.40;99.90;;;;;;4973059;28;19948;-74
2023/03/02 02:39:59;;;;;;;;;;;-1.30;99.90;;;;;;4973505;28;20391;-74
2023/03/02 02:42:28;;;;;;;;;;;-1.40;99.90;;;;;;4973064;28;19926;-73
2023/03/02 02:44:57;;;;;;;;;;;-1.40;99.90;;;;;;4972394;28;20432;-73
2023/03/02 02:47:24;;;;;;;;;;;-1.40;99.90;;;;;;4971545;28;20009;-73
2023/03/02 02:49:52;;;;;;;;;;;-1.30;99.90;;;;;;4972505;28;19926;-74
2023/03/02 02:52:20;;;;;;;;;;;-1.30;99.90;;;;;;4973386;28;19933;-74
2023/03/02 02:54:48;;;;;;;;;;;-1.30;99.90;;;;;;4972199;28;20412;-73
2023/03/02 02:57:16;;;;;;;;;;;-1.30;99.90;;;;;;4972175;28;19932;-74
2023/03/02 02:59:45;;;;;;;;;;;-1.30;99.90;;;;;;4971776;28;20030;-73
2023/03/02 03:02:15;;;;;;;;;;;-1.30;99.90;;;;;;4972380;28;20296;-72
2023/03/02 03:04:42;;;;;;;;;;;-1.20;99.90;;;;;;4971250;28;19930;-74
2023/03/02 03:07:10;;;;;;;;;;;-1.30;99.90;;;;;;4972213;28;20293;-72
2023/03/02 03:09:36;;;;;;;;;;;-1.30;99.90;;;;;;4972442;28;19933;-72
2023/03/02 03:12:07;;;;;;;;;;;-1.30;99.90;;;;;;4972497;28;20014;-72
2023/03/02 03:14:35;;;;;;;;;;;-1.30;99.90;;;;;;4972448;28;20025;-73
2023/03/02 03:17:02;;;;;;;;;;;-1.30;99.90;;;;;;4971616;28;19941;-72
2023/03/02 03:19:30;;;;;;;;;;;-1.30;99.90;;;;;;4970560;28;20012;-71
2023/03/02 03:21:58;;;;;;;;;;;-1.30;99.90;;;;;;4971991;28;20001;-72
2023/03/02 03:24:26;;;;;;;;;;;-1.30;99.90;;;;;;4972705;28;20392;-72
2023/03/02 03:26:53;;;;;;;;;;;-1.30;99.90;;;;;;4970792;28;20365;-72
2023/03/02 03:29:23;;;;;;;;;;;-1.30;99.90;;;;;;4972415;28;20418;-72
2023/03/02 03:31:49;;;;;;;;;;;-1.30;99.90;;;;;;4973227;28;19934;-73
2023/03/02 03:34:16;;;;;;;;;;;-1.40;99.90;;;;;;4977794;28;19998;-71
2023/03/02 03:36:44;;;;;;;;;;;-1.40;99.90;;;;;;4977478;28;20432;-69
2023/03/02 03:39:11;;;;;;;;;;;-1.40;99.90;;;;;;4971527;28;19978;-73
2023/03/02 03:41:38;;;;;;;;;;;-1.40;99.90;;;;;;4971659;28;20382;-72
2023/03/02 03:44:05;;;;;;;;;;;-1.50;99.90;;;;;;4972339;28;19951;-72
2023/03/02 03:46:32;;;;;;;;;;;-1.40;99.90;;;;;;4972246;28;19926;-72
2023/03/02 03:48:58;;;;;;;;;;;-1.50;99.90;;;;;;4971450;28;20402;-72
2023/03/02 03:51:25;;;;;;;;;;;-1.40;99.90;;;;;;4971674;28;20445;-74
2023/03/02 03:53:59;;;;;;;;;;;-1.40;99.90;;;;;;4971093;28;20012;-72
2023/03/02 03:56:26;;;;;;;;;;;-1.40;99.90;;;;;;4954001;28;19926;-72
2023/03/02 03:59:05;;;;;;;;;;;-1.30;99.90;;;;;;4972159;28;20020;-74
2023/03/02 04:01:33;;;;;;;;;;;-1.40;99.90;;;;;;4970401;28;19933;-73
2023/03/02 04:04:00;;;;;;;;;;;-1.40;99.90;;;;;;4970663;28;19926;-73
2023/03/02 04:06:27;;;;;;;;;;;-1.30;99.90;;;;;;4962432;28;19973;-73
2023/03/02 04:08:55;;;;;;;;;;;-1.40;99.90;;;;;;4971651;28;19930;-73
2023/03/02 04:11:21;;;;;;;;;;;-1.50;99.90;;;;;;4970825;28;19976;-73
2023/03/02 04:13:48;;;;;;;;;;;-1.50;99.90;;;;;;4971009;28;20004;-72
2023/03/02 04:16:15;;;;;;;;;;;-1.50;99.90;;;;;;4970500;28;19929;-72
2023/03/02 04:18:42;;;;;;;;;;;-1.60;99.90;;;;;;4966740;28;19933;-73
2023/03/02 04:21:09;;;;;;;;;;;-1.70;99.90;;;;;;4958238;28;19934;-72
2023/03/02 04:23:36;;;;;;;;;;;-1.80;99.90;;;;;;4971303;28;20001;-75
2023/03/02 04:26:04;;;;;;;;;;;-1.80;99.90;;;;;;4970638;28;20031;-74
2023/03/02 04:28:30;;;;;;;;;;;-1.80;99.90;;;;;;4968258;28;19926;-74
2023/03/02 04:30:57;;;;;;;;;;;-1.70;99.90;;;;;;4970090;28;19979;-74
2023/03/02 04:33:24;;;;;;;;;;;-1.70;99.90;;;;;;4970006;28;20018;-73
2023/03/02 04:35:50;;;;;;;;;;;-1.70;99.90;;;;;;4971359;28;19961;-72
2023/03/02 04:38:17;;;;;;;;;;;-1.60;99.90;;;;;;4970358;28;19926;-73
2023/03/02 04:40:44;;;;;;;;;;;-1.70;99.90;;;;;;4971145;28;20399;-74
2023/03/02 04:43:12;;;;;;;;;;;-1.60;99.90;;;;;;4971110;28;19980;-74
2023/03/02 04:45:39;;;;;;;;;;;-1.70;99.90;;;;;;4969218;28;19926;-72
2023/03/02 04:48:07;;;;;;;;;;;-1.70;99.90;;;;;;4971046;28;20363;-73
2023/03/02 04:50:34;;;;;;;;;;;-1.60;99.90;;;;;;4970477;28;19933;-73
2023/03/02 04:53:00;;;;;;;;;;;-1.60;99.90;;;;;;4971548;28;19926;-73
2023/03/02 04:55:27;;;;;;;;;;;-1.60;99.90;;;;;;4970785;28;19933;-73
2023/03/02 04:57:54;;;;;;;;;;;-1.60;99.90;;;;;;4970563;28;19969;-73
2023/03/02 05:00:22;;;;;;;;;;;-1.60;99.90;;;;;;4960481;28;19980;-73
2023/03/02 05:02:49;;;;;;;;;;;-1.60;99.90;;;;;;4971522;28;19946;-74
2023/03/02 05:05:17;;;;;;;;;;;-1.60;99.90;;;;;;4967948;28;19932;-74
2023/03/02 05:07:44;;;;;;;;;;;-1.60;99.90;;;;;;4969366;28;20005;-73
2023/03/02 05:10:11;;;;;;;;;;;-1.60;99.90;;;;;;4970382;28;19926;-74
2023/03/02 05:12:53;;;;;;;;;;;-1.60;99.90;;;;;;4970161;28;19932;-73
2023/03/02 05:15:21;;;;;;;;;;;-1.50;99.90;;;;;;4971860;28;19978;-74
2023/03/02 05:17:48;;;;;;;;;;;-1.60;99.90;;;;;;4970892;28;19926;-73
2023/03/02 05:20:15;;;;;;;;;;;-1.60;99.90;;;;;;4969074;28;19926;-73
2023/03/02 05:22:45;;;;;;;;;;;-1.60;99.90;;;;;;4970895;28;20344;-74
2023/03/02 05:25:11;;;;;;;;;;;-1.60;99.90;;;;;;4969472;28;20439;-72
2023/03/02 05:27:38;;;;;;;;;;;-1.60;99.90;;;;;;4964049;28;19966;-74
2023/03/02 05:30:06;;;;;;;;;;;-1.60;99.90;;;;;;4969186;28;21246;-75
2023/03/02 05:32:34;;;;;;;;;;;-1.50;99.90;;;;;;4968013;28;19988;-73
2023/03/02 05:35:01;;;;;;;;;;;-1.40;99.90;;;;;;4966108;28;19956;-73
2023/03/02 05:37:28;;;;;;;;;;;-1.50;99.90;;;;;;4971184;28;19934;-73
2023/03/02 05:39:57;;;;;;;;;;;-1.50;99.90;;;;;;4972710;28;20023;-72
2023/03/02 05:42:24;;;;;;;;;;;-1.40;99.90;;;;;;4970507;28;19926;-72
2023/03/02 05:44:50;;;;;;;;;;;-1.50;99.90;;;;;;4974480;28;20316;-73
2023/03/02 05:47:17;;;;;;;;;;;-1.50;99.90;;;;;;4971843;28;19952;-72
2023/03/02 05:49:48;;;;;;;;;;;-1.50;99.90;;;;;;4972937;28;19926;-74
2023/03/02 05:52:15;;;;;;;;;;;-1.60;99.90;;;;;;4972424;28;19926;-72
2023/03/02 05:54:41;;;;;;;;;;;-1.50;99.90;;;;;;4973206;28;20014;-73
2023/03/02 05:57:08;;;;;;;;;;;-1.50;99.90;;;;;;4972124;28;20021;-73
2023/03/02 05:59:35;;;;;;;;;;;-1.50;99.90;;;;;;4972561;28;19926;-73
2023/03/02 06:02:03;;;;;;;;;;;-1.50;99.90;;;;;;4973343;28;19926;-73
2023/03/02 06:04:30;;;;;;;;;;;-1.50;99.90;;;;;;4973469;28;19933;-74
2023/03/02 06:06:58;;;;;;;;;;;-1.50;99.90;;;;;;4967092;28;20385;-73
2023/03/02 06:09:24;;;;;;;;;;;-1.60;99.90;;;;;;4973057;28;20016;-73
2023/03/02 06:11:51;;;;;;;;;;;-1.60;99.90;;;;;;4972113;28;19992;-74
2023/03/02 06:14:18;;;;;;;;;;;-1.60;99.90;;;;;;4973566;28;19970;-71
2023/03/02 06:16:44;;;;;;;;;;;-1.60;99.90;;;;;;4971717;28;20369;-71
2023/03/02 06:19:11;;;;;;;;;;;-1.60;99.90;;;;;;4974149;28;20444;-71
2023/03/02 06:21:38;;;;;;;;;;;-1.60;99.90;;;;;;4967517;28;20347;-69
2023/03/02 06:24:06;;;;;;;;;;;-1.70;99.90;;;;;;4970342;28;19933;-71
2023/03/02 06:26:33;;;;;;;;;;;-1.70;99.90;;;;;;4959790;28;19980;-71
2023/03/02 06:28:59;;;;;;;;;;;-1.70;99.90;;;;;;4963507;28;19933;-70
2023/03/02 06:31:26;;;;;;;;;;;-1.70;99.90;;;;;;4961415;28;19933;-71
2023/03/02 06:33:53;;;;;;;;;;;-1.70;99.90;;;;;;4960531;28;19926;-71
2023/03/02 06:36:20;;;;;;;;;;;-1.70;99.90;;;;;;4966029;28;20019;-71
2023/03/02 06:38:46;;;;;;;;;;;-1.60;99.90;;;;;;4959259;28;19966;-71
2023/03/02 06:41:15;;;;;;;;;;;-1.70;99.90;;;;;;4961240;28;19937;-71
2023/03/02 06:43:41;;;;;;;;;;;-1.60;99.90;;;;;;4962574;28;20017;-70
2023/03/02 06:46:08;;;;;;;;;;;-1.60;99.90;;;;;;4960994;28;20417;-71
2023/03/02 06:48:35;;;;;;;;;;;-1.60;99.90;;;;;;4961402;28;19933;-70
2023/03/02 06:51:02;;;;;;;;;;;-1.50;99.90;;;;;;4967157;28;19932;-71
2023/03/02 06:53:29;;;;;;;;;;;-1.50;99.90;;;;;;4959887;28;19926;-71
2023/03/02 06:55:56;;;;;;;;;;;-1.50;99.90;;;;;;4965919;28;20001;-71
2023/03/02 06:58:24;;;;;;;;;;;-1.40;99.90;;;;;;4964322;28;20030;-71
2023/03/02 07:00:50;;;;;;;;;;;-1.40;99.90;;;;;;4967134;28;19988;-71
2023/03/02 07:03:17;;;;;;;;;;;-1.40;99.90;;;;;;4974441;28;20013;-71
2023/03/02 07:05:44;;;;;;;;;;;-1.40;99.90;;;;;;4960149;28;20412;-74
2023/03/02 07:08:11;;;;;;;;;;;-1.30;99.90;;;;;;4965248;28;20008;-74
2023/03/02 07:10:38;;;;;;;;;;;-1.30;99.90;;;;;;4962125;28;19927;-71
2023/03/02 07:13:04;;;;;;;;;;;-1.30;99.90;;;;;;4967811;28;19926;-70
2023/03/02 07:15:32;;;;;;;;;;;-1.20;99.90;;;;;;4968893;28;20388;-71
2023/03/02 07:17:59;;;;;;;;;;;-1.10;99.90;;;;;;4971577;28;19926;-71
2023/03/02 07:20:26;;;;;;;;;;;-1.00;99.90;;;;;;4971926;28;19989;-72
2023/03/02 07:22:52;;;;;;;;;;;-1.00;99.90;;;;;;4964671;28;19926;-71
2023/03/02 07:25:19;;;;;;;;;;;-0.90;99.90;;;;;;4969917;28;20024;-72
2023/03/02 07:27:46;;;;;;;;;;;-0.90;99.90;;;;;;4970533;28;20008;-71
2023/03/02 07:30:13;;;;;;;;;;;-0.80;99.90;;;;;;4971250;28;20373;-70
2023/03/02 07:32:41;;;;;;;;;;;-0.80;99.90;;;;;;4971727;28;20011;-71
2023/03/02 07:35:08;;;;;;;;;;;-0.70;99.90;;;;;;4970144;28;19927;-72
2023/03/02 07:37:35;;;;;;;;;;;-0.70;99.90;;;;;;4969287;28;20068;-71
2023/03/02 07:40:02;;;;;;;;;;;-0.60;99.90;;;;;;4971349;28;19926;-71
2023/03/02 07:42:29;;;;;;;;;;;-0.50;99.90;;;;;;4969052;28;19961;-71
2023/03/02 07:44:55;;;;;;;;;;;-0.50;99.90;;;;;;4972008;28;20017;-71
2023/03/02 07:47:22;;;;;;;;;;;-0.40;99.90;;;;;;4971646;28;19995;-71
2023/03/02 07:49:50;;;;;;;;;;;-0.40;99.90;;;;;;4971381;28;19926;-71
2023/03/02 07:52:17;;;;;;;;;;;-0.30;99.90;;;;;;4970224;28;20028;-71
2023/03/02 07:54:44;;;;;;;;;;;-0.10;99.90;;;;;;4972072;28;20336;-71
2023/03/02 07:57:12;;;;;;;;;;;-0.10;99.90;;;;;;4969627;28;19941;-72
2023/03/02 07:59:39;;;;;;;;;;;0.00;99.90;;;;;;4968541;28;19926;-71
2023/03/02 08:02:05;;;;;;;;;;;0.10;99.90;;;;;;4968408;28;20006;-71
2023/03/02 08:04:34;;;;;;;;;;;0.30;99.90;;;;;;4966732;28;19933;-72
2023/03/02 08:07:02;;;;;;;;;;;0.40;99.90;;;;;;4975997;28;19930;-71
2023/03/02 08:09:29;;;;;;;;;;;0.50;99.90;;;;;;4960206;28;19926;-72
2023/03/02 08:11:55;;;;;;;;;;;0.70;99.90;;;;;;4969729;28;19933;-72
2023/03/02 08:14:22;;;;;;;;;;;1.70;99.90;;;;;;4970332;28;19965;-72
2023/03/02 08:16:51;;;;;;;;;;;2.50;99.90;;;;;;4971219;28;19970;-71
2023/03/02 08:19:17;;;;;;;;;;;2.80;99.90;;;;;;4970133;28;19926;-72
2023/03/02 08:21:44;;;;;;;;;;;3.40;99.90;;;;;;4969697;28;19926;-71
2023/03/02 08:24:12;;;;;;;;;;;3.60;99.90;;;;;;4969324;28;19926;-71
2023/03/02 08:26:39;;;;;;;;;;;3.10;99.90;;;;;;4966928;28;19926;-72
2023/03/02 08:29:06;;;;;;;;;;;3.30;99.90;;;;;;4971217;28;19926;-70
2023/03/02 08:31:33;;;;;;;;;;;3.70;99.90;;;;;;4968029;28;20369;-71
2023/03/02 08:33:59;;;;;;;;;;;3.60;99.40;;;;;;4968428;28;20345;-71
2023/03/02 08:36:26;;;;;;;;;;;4.00;99.10;;;;;;4967963;28;19938;-69
2023/03/02 08:38:53;;;;;;;;;;;4.20;98.90;;;;;;4969972;28;20378;-70
2023/03/02 08:41:22;;;;;;;;;;;4.10;98.00;;;;;;4971419;28;19926;-70
2023/03/02 08:43:52;;;;;;;;;;;3.50;98.40;;;;;;4968735;28;20299;-70
2023/03/02 08:46:19;;;;;;;;;;;2.80;99.90;;;;;;4969660;28;19957;-71
2023/03/02 08:48:46;;;;;;;;;;;2.70;99.90;;;;;;4972187;28;19932;-70
2023/03/02 08:51:14;;;;;;;;;;;3.00;99.90;;;;;;4968217;28;20021;-70
2023/03/02 08:53:42;;;;;;;;;;;3.50;99.90;;;;;;4968939;28;19926;-69
2023/03/02 08:56:16;;;;;;;;;;;3.40;99.80;;;;;;4959386;28;20399;-69
2023/03/02 08:58:44;;;;;;;;;;;3.20;99.90;;;;;;4961297;28;19937;-70
2023/03/02 09:01:14;;;;;;;;;;;3.20;99.90;;;;;;4967239;28;19933;-70
2023/03/02 09:03:41;;;;;;;;;;;3.40;99.40;;;;;;4963330;28;19926;-70
2023/03/02 09:06:08;;;;;;;;;;;3.70;99.40;;;;;;4966647;28;20332;-70
2023/03/02 09:08:35;;;;;;;;;;;3.70;98.70;;;;;;4968160;28;19926;-71
2023/03/02 09:11:02;;;;;;;;;;;3.50;99.50;;;;;;4966441;28;19936;-70
2023/03/02 09:13:28;;;;;;;;;;;4.00;99.10;;;;;;4968278;28;19930;-69
2023/03/02 09:16:03;;;;;;;;;;;4.00;98.30;;;;;;4965312;28;20021;-69
2023/03/02 09:18:30;;;;;;;;;;;3.90;98.80;;;;;;4965908;28;20065;-71
2023/03/02 09:20:57;;;;;;;;;;;3.80;99.00;;;;;;4967182;28;20044;-70
2023/03/02 09:23:25;;;;;;;;;;;4.00;98.90;;;;;;4965275;28;20460;-70
2023/03/02 09:25:52;;;;;;;;;;;4.20;98.60;;;;;;4954100;28;19979;-69
2023/03/02 09:28:20;;;;;;;;;;;3.80;98.80;;;;;;4966193;28;19926;-71
2023/03/02 09:30:48;;;;;;;;;;;3.60;99.30;;;;;;4966648;28;19933;-70
2023/03/02 09:33:16;;;;;;;;;;;3.30;98.90;;;;;;4969803;28;20016;-70
2023/03/02 09:35:42;;;;;;;;;;;4.00;98.90;;;;;;4962024;28;19927;-70
2023/03/02 09:38:11;;;;;;;;;;;4.10;99.20;;;;;;4964831;28;19973;-70
2023/03/02 09:40:40;;;;;;;;;;;4.60;97.20;;;;;;4964404;28;19930;-69
2023/03/02 09:43:10;;;;;;;;;;;4.20;96.90;;;;;;4968199;28;19930;-70
2023/03/02 09:45:45;;;;;;;;;;;4.00;98.30;;;;;;4969865;28;19969;-70
2023/03/02 09:48:16;;;;;;;;;;;4.20;97.40;;;;;;4966803;28;19934;-69
2023/03/02 09:50:50;;;;;;;;;;;3.60;99.10;;;;;;4958151;28;20029;-68
2023/03/02 09:53:24;;;;;;;;;;;3.40;99.90;;;;;;4962796;28;19926;-70
2023/03/02 09:55:53;;;;;;;;;;;3.20;99.90;;;;;;4962214;28;19930;-70
2023/03/02 09:58:20;;;;;;;;;;;3.10;99.90;;;;;;4965883;28;20289;-70
2023/03/02 10:00:47;;;;;;;;;;;3.20;99.90;;;;;;4965361;28;19933;-70
2023/03/02 10:03:17;;;;;;;;;;;3.40;99.90;;;;;;4959349;28;20030;-70
2023/03/02 10:05:45;;;;;;;;;;;3.40;99.90;;;;;;4967866;28;20309;-69
2023/03/02 10:08:13;;;;;;;;;;;3.40;99.90;;;;;;4965044;28;20025;-68
2023/03/02 10:10:43;;;;;;;;;;;3.70;99.90;;;;;;4964865;28;19969;-66
2023/03/02 10:13:18;;;;;;;;;;;3.70;99.90;;;;;;4963863;28;20643;-69
2023/03/02 10:15:49;;;;;;;;;;;3.80;99.40;;;;;;4968458;28;19933;-69
2023/03/02 10:18:20;;;;;;;;;;;3.60;99.70;;;;;;4950273;28;19927;-69
2023/03/02 10:20:49;;;;;;;;;;;3.60;99.90;;;;;;4964792;28;20393;-70
2023/03/02 10:23:23;;;;;;;;;;;3.50;99.50;;;;;;4966894;28;19926;-70
2023/03/02 10:25:52;;;;;;;;;;;3.50;99.90;;;;;;4966047;28;20020;-70
2023/03/02 10:28:20;;;;;;;;;;;3.60;99.90;;;;;;4965494;28;20428;-70
2023/03/02 10:30:49;;;;;;;;;;;3.60;98.80;;;;;;4972514;28;19992;-70
2023/03/02 10:33:17;;;;;;;;;;;3.90;99.90;;;;;;4966526;28;20397;-70
2023/03/02 10:35:45;;;;;;;;;;;3.90;99.70;;;;;;4964804;28;20301;-71
2023/03/02 10:38:13;;;;;;;;;;;4.10;99.10;;;;;;4968506;28;19977;-69
2023/03/02 10:40:42;;;;;;;;;;;4.20;98.80;;;;;;4964238;28;19927;-70
2023/03/02 10:43:13;;;;;;;;;;;4.00;98.20;;;;;;4972022;28;20017;-69
2023/03/02 10:45:40;;;;;;;;;;;4.00;98.10;;;;;;4972182;28;19944;-69
2023/03/02 10:48:07;;;;;;;;;;;4.00;97.80;;;;;;4968934;28;20274;-69
2023/03/02 10:50:35;;;;;;;;;;;4.30;98.30;;;;;;4964615;28;20492;-69
2023/03/02 10:53:02;;;;;;;;;;;4.20;98.10;;;;;;4962569;28;19949;-69
2023/03/02 10:55:28;;;;;;;;;;;4.50;97.60;;;;;;4967600;28;19930;-69
2023/03/02 10:58:04;;;;;;;;;;;4.50;97.80;;;;;;4968522;28;20017;-69
2023/03/02 11:00:31;;;;;;;;;;;4.40;97.60;;;;;;4957828;28;19926;-69
2023/03/02 11:02:59;;;;;;;;;;;4.60;95.40;;;;;;4971057;28;19934;-69
2023/03/02 11:05:31;;;;;;;;;;;4.90;96.00;;;;;;4970216;28;19926;-69
2023/03/02 11:07:58;;;;;;;;;;;4.60;94.30;;;;;;4964337;28;19938;-69
2023/03/02 11:10:27;;;;;;;;;;;4.70;95.80;;;;;;4963483;28;19933;-70
2023/03/02 11:12:54;;;;;;;;;;;4.80;95.30;;;;;;4967174;28;19949;-70
2023/03/02 11:15:25;;;;;;;;;;;4.90;94.40;;;;;;4969003;28;19935;-69
2023/03/02 11:17:54;;;;;;;;;;;5.10;95.40;;;;;;4963823;28;19966;-69
2023/03/02 11:20:23;;;;;;;;;;;5.30;93.40;;;;;;4966929;28;19937;-69
2023/03/02 11:22:54;;;;;;;;;;;5.60;93.40;;;;;;4966081;28;20088;-69
2023/03/02 11:25:25;;;;;;;;;;;5.10;92.30;;;;;;4965575;28;19988;-69
2023/03/02 11:27:55;;;;;;;;;;;5.10;92.40;;;;;;4964192;28;19926;-70
2023/03/02 11:30:25;;;;;;;;;;;5.30;92.80;;;;;;4967691;28;19973;-69
2023/03/02 11:32:54;;;;;;;;;;;5.30;90.00;;;;;;4970297;28;20385;-69
2023/03/02 11:35:24;;;;;;;;;;;5.50;90.80;;;;;;4964375;28;19926;-69
2023/03/02 11:37:52;;;;;;;;;;;5.50;90.50;;;;;;4962145;28;19977;-69
2023/03/02 11:40:21;;;;;;;;;;;6.00;90.40;;;;;;4965983;28;19995;-67
2023/03/02 11:42:48;;;;;;;;;;;5.80;90.10;;;;;;4969592;28;19930;-69
2023/03/02 11:45:20;;;;;;;;;;;5.90;90.20;;;;;;4971014;28;19926;-69
2023/03/02 11:47:51;;;;;;;;;;;5.90;87.30;;;;;;4970165;28;20675;-69
2023/03/02 11:50:18;;;;;;;;;;;6.00;87.70;;;;;;4965226;28;19926;-69
2023/03/02 11:52:47;;;;;;;;;;;6.00;88.80;;;;;;4967289;28;19926;-70
2023/03/02 11:55:17;;;;;;;;;;;6.10;86.00;;;;;;4961596;28;19930;-70
2023/03/02 11:57:48;;;;;;;;;;;6.20;85.60;;;;;;4968393;28;19926;-69
2023/03/02 12:00:21;;;;;;;;;;;6.50;86.30;;;;;;4966541;28;19932;-69
2023/03/02 12:02:59;;;;;;;;;;;6.50;80.60;;;;;;4964820;28;20294;-69
2023/03/02 12:05:26;;;;;;;;;;;6.20;81.90;;;;;;4961154;28;20049;-70
2023/03/02 12:07:57;;;;;;;;;;;6.50;81.60;;;;;;4963908;28;20009;-70
2023/03/02 12:10:27;;;;;;;;;;;6.50;80.60;;;;;;4964387;28;19926;-70
2023/03/02 12:13:06;;;;;;;;;;;6.60;81.30;;;;;;4964321;28;19930;-69
2023/03/02 12:15:37;;;;;;;;;;;6.70;80.90;;;;;;4965466;28;19930;-65
2023/03/02 12:18:24;;;;;;;;;;;6.80;80.70;;;;;;4959427;28;19963;-69
2023/03/02 12:20:58;;;;;;;;;;;6.80;80.20;;;;;;4967621;28;19926;-69
2023/03/02 12:23:25;;;;;;;;;;;7.00;79.50;;;;;;4966531;28;19940;-69
2023/03/02 12:26:01;;;;;;;;;;;7.00;78.40;;;;;;4967002;28;20478;-69
2023/03/02 12:28:30;;;;;;;;;;;7.00;77.10;;;;;;4964122;28;19926;-68
2023/03/02 12:31:01;;;;;;;;;;;7.00;78.30;;;;;;4965056;28;19926;-69
2023/03/02 12:33:30;;;;;;;;;;;7.20;78.50;;;;;;4962641;28;20028;-70
2023/03/02 12:36:12;;;;;;;;;;;7.40;77.50;;;;;;4968463;28;20331;-70
2023/03/02 12:38:41;;;;;;;;;;;7.50;75.40;;;;;;4968837;28;20329;-69
2023/03/02 12:41:21;;;;;;;;;;;7.40;77.00;;;;;;4967892;28;19926;-69
2023/03/02 12:43:55;;;;;;;;;;;7.30;72.00;;;;;;4966258;28;19941;-70
2023/03/02 12:46:29;;;;;;;;;;;7.30;73.20;;;;;;4966062;28;19930;-70
2023/03/02 12:49:11;;;;;;;;;;;7.30;72.50;;;;;;4967895;28;19934;-68
2023/03/02 12:51:47;;;;;;;;;;;7.40;74.80;;;;;;4966043;28;19930;-69
2023/03/02 12:54:15;;;;;;;;;;;7.60;72.10;;;;;;4966535;28;19932;-69
2023/03/02 12:56:44;;;;;;;;;;;7.40;71.20;;;;;;4966312;28;20619;-70
2023/03/02 12:59:19;;;;;;;;;;;7.50;71.90;;;;;;4962866;28;20408;-69
2023/03/02 13:01:46;;;;;;;;;;;7.60;70.30;;;;;;4965279;28;20013;-69
2023/03/02 13:04:21;;;;;;;;;;;7.60;70.30;;;;;;4964851;28;20378;-70
2023/03/02 13:06:48;;;;;;;;;;;7.80;71.40;;;;;;4965526;28;19926;-69
2023/03/02 13:09:15;;;;;;;;;;;7.60;68.10;;;;;;4963338;28;19931;-69
2023/03/02 13:11:42;;;;;;;;;;;7.60;68.50;;;;;;4966153;28;20297;-69
2023/03/02 13:14:18;;;;;;;;;;;7.80;69.00;;;;;;4965560;28;20005;-69
2023/03/02 13:16:53;;;;;;;;;;;7.80;68.40;;;;;;4963490;28;19926;-69
2023/03/02 13:19:21;;;;;;;;;;;8.00;66.20;;;;;;4963235;28;20017;-68
2023/03/02 13:21:48;;;;;;;;;;;8.10;67.30;;;;;;4963360;28;20377;-69
2023/03/02 13:24:32;;;;;;;;;;;8.10;66.30;;;;;;4968528;28;19926;-69
2023/03/02 13:27:00;;;;;;;;;;;8.30;66.00;;;;;;4959433;28;19930;-69
2023/03/02 13:29:29;;;;;;;;;;;8.30;66.20;;;;;;4964981;28;19934;-69
2023/03/02 13:31:56;;;;;;;;;;;8.40;66.50;;;;;;4969176;28;20274;-69
2023/03/02 13:34:25;;;;;;;;;;;8.40;65.90;;;;;;4963737;28;19979;-69
2023/03/02 13:36:52;;;;;;;;;;;8.40;63.80;;;;;;4964560;28;20278;-69
2023/03/02 13:39:20;;;;;;;;;;;8.20;61.60;;;;;;4967446;28;20357;-70
2023/03/02 13:41:52;;;;;;;;;;;8.30;60.50;;;;;;4967681;28;19934;-68
2023/03/02 13:44:20;;;;;;;;;;;8.40;62.00;;;;;;4965144;28;19969;-69
2023/03/02 13:46:47;;;;;;;;;;;8.50;60.20;;;;;;4968263;28;19933;-70
2023/03/02 13:49:14;;;;;;;;;;;8.50;59.20;;;;;;4967459;28;19933;-72
2023/03/02 13:51:43;;;;;;;;;;;8.70;60.90;;;;;;4968174;28;19933;-69
2023/03/02 13:54:16;;;;;;;;;;;8.60;58.70;;;;;;4969346;28;19934;-70
2023/03/02 13:56:44;;;;;;;;;;;8.70;58.90;;;;;;4969293;28;19987;-69
2023/03/02 13:59:12;;;;;;;;;;;8.70;57.90;;;;;;4975122;28;20403;-69
2023/03/02 14:01:40;;;;;;;;;;;8.60;58.40;;;;;;5011135;28;19969;-70
2023/03/02 14:04:08;;;;;;;;;;;8.70;57.60;;;;;;4970898;28;19944;-68
2023/03/02 14:06:35;;;;;;;;;;;8.80;56.20;;;;;;4969382;28;19927;-69
2023/03/02 14:09:03;;;;;;;;;;;8.80;56.10;;;;;;4971540;28;19926;-69
2023/03/02 14:11:32;;;;;;;;;;;9.00;55.40;;;;;;4971019;28;19930;-67
2023/03/02 14:14:00;;;;;;;;;;;9.00;55.50;;;;;;4971898;28;19926;-68
2023/03/02 14:16:27;;;;;;;;;;;9.10;55.80;;;;;;4971143;28;20017;-69
2023/03/02 14:18:55;;;;;;;;;;;9.10;54.60;;;;;;4970444;28;19940;-70
2023/03/02 14:21:22;;;;;;;;;;;8.90;52.20;;;;;;4971976;28;20324;-69
2023/03/02 14:23:50;;;;;;;;;;;9.10;53.70;;;;;;4970917;28;20413;-69
2023/03/02 14:26:25;;;;;;;;;;;9.10;52.40;;;;;;4971759;28;20366;-69
2023/03/02 14:28:51;;;;;;;;;;;9.20;52.60;;;;;;4972522;28;19970;-68
2023/03/02 14:31:18;;;;;;;;;;;9.20;52.70;;;;;;4970689;28;19936;-70